KBAF/BAF METAR and TAF weather

Enter ICAO airport designator
Station Type Date Time Source
KBAF METAR 2019/12/14 05:53 UTC NOAA

KBAF 140553Z AUTO 01008KT 5SM RA BR OVC004 01/00 A2999 RMK AO2 PRESFR SLP162 P0012 60033 T00060000 10011 20000 58046


Station Type Date Time Source
KBAF Decoded METAR 2019/12/14 05:53 UTC NOAA

WESTFIELD BARNES MUNICIPAL, MA, United States (KBAF) 42-10N 072-43W 83M
Dec 14, 2019 - 12:53 AM EST / 2019.12.14 0553 UTC
Wind: from the N (010 degrees) at 9 MPH (8 KT):0
Visibility: 5 mile(s):0
Sky conditions: overcast
Weather: rain; mist
Precipitation last hour: 0.12 inches
Temperature: 33.1 F (0.6 C)
Windchill: 24 F (-4 C):1
Dew Point: 32.0 F (0.0 C)
Relative Humidity: 95%
Pressure (altimeter): 29.99 in. Hg (1015 hPa)
Pressure tendency: falling rapidly - 0.14 inches (4.6 hPa) lower than three hours ago
ob: KBAF 140553Z AUTO 01008KT 5SM RA BR OVC004 01/00 A2999 RMK AO2 PRESFR SLP162 P0012 60033 T00060000 10011 20000 58046
cycle: 6

Station Type Date Time Source
KBAF TAF 2019/12/14 06:42 UTC NOAA

TAF KBAF 140540Z 1406/1506 02007KT 1 1/2SM RA BR OVC003 WS020/14040KT
FM141900 07004KT 1SM BR VCSH OVC003
FM142100 13004KT 1/2SM -SHRA FG OVC003 WS020/19035KT
FM142300 17005KT 1 1/2SM -SHRA BR OVC003 WS020/19035KT
FM150100 20010G22KT 6SM BR VCSH OVC015
FM150400 22012G27KT P6SM OVC020

Example: see airport list